Eskridge, Kansas
Current Conditions -  °F | °C
As of 5:01 AM on Saturday 25 Oct 2014 (Local Time) from KFOE Reporting Station
Moderate Fog Moderate Fog  
Wind Chill: 53°   Ceiling: 400
Heat Index: 53°   Visibility: 0.25mi
Dew Point: 52°   Wind: 0mph
Humidity: 96%   Direction: NA
Pressure: 30.02"   Gusts: NA
Location:  38.86°N, 96.11°W
Report Text: KFOE 251001Z AUTO 00000KT 1/4SM R31/1200V2400FT FG VV004 12/11 A3002 RMK AO2 T01170111
Loading
Personal Weather Stations






























Interactive Weather Map
Tropical Storm Tracking
New forecast layout! Learn more

10-Day Weather Forecast

Advertisements
Track Severe Weather on mobile